Ardenvoir, WA (98811)

9:03 AM PDT on July 23, 2016 (GMT -0700)
Entiat Valley | | Change Station

Elev 1050 ft 47.70 °N, 120.33 °W | Updated 7 seconds ago

Clear
Clear
67.2 °F
Feels Like 67.2 °F
N
2.0
Wind Variable Wind from ESE
Gusts 3.0 mph

Today
High -- | Low -- °F
--% Chance of Precip.
Yesterday
High -- | Low -- °F
Precip. -- in
Pressure 30.15 in
Visibility 10.0 miles
Clouds Clear
Dew Point 52 °F
Humidity 58%
Rainfall 0.00 in
Snow Depth Not available.
5:28 AM 8:47 PM
Waning Gibbous, 84% visible
METAR KEAT 231555Z AUTO 28007KT 10SM CLR 20/07 A3016 RMK AO2 SLP209 T02000072
Pressure 30.15 in
Visibility 10.0 miles
Clouds Clear
Dew Point 52 °F
Humidity 58%
Rainfall 0.00 in
Snow Depth Not available.
5:28 AM 8:47 PM
Waning Gibbous, 84% visible
METAR KEAT 231555Z AUTO 28007KT 10SM CLR 20/07 A3016 RMK AO2 SLP209 T02000072

10-Day Weather Forecast

Almanac

Astronomy

Jul. 23, 2016 Rise Set
Actual Time
Civil Twilight
Nautical Twilight
Astronomical Twilight
Moon
Length of Visible Light
Length of Day
Tomorrow will be .
, % of the Moon is Illuminated

Today's Extremes

State Highs State Lows

Community

WunderPhotos

Upload Photos

1,926,857 photos uploaded!

WunderBlog® & News

Nearby

Air Quality

  Air Quality AQ Index Pollutant
Not available.

Snow Depth

Station Depth Elevation

Earthquake Activity

City Distance Mag. Time & Date
Minimum magnitude displayed is 2.5.

Coastal Water Temperatures

Place Temperature

Stations

Nearby Weather Stations

Station Location Temp. Windchill Dew Point Humidity Wind Precip. Elev Updated Type
                   

Watches & Warnings

There are currently no watches in effect.